sensor_id;sensor_type;location;lat;lon;timestamp;P1;durP1;ratioP1;P2;durP2;ratioP2
22851;SDS011;11592;45.460;9.240;2022-09-03T00:00:55;9.60;;;5.40;;
22851;SDS011;11592;45.460;9.240;2022-09-03T00:03:28;7.72;;;5.45;;
22851;SDS011;11592;45.460;9.240;2022-09-03T00:14:05;7.55;;;5.40;;
22851;SDS011;11592;45.460;9.240;2022-09-03T00:16:58;9.07;;;5.82;;
22851;SDS011;11592;45.460;9.240;2022-09-03T00:19:31;9.10;;;6.45;;
22851;SDS011;11592;45.460;9.240;2022-09-03T00:22:02;13.18;;;6.40;;
22851;SDS011;11592;45.460;9.240;2022-09-03T00:24:37;8.43;;;6.00;;
22851;SDS011;11592;45.460;9.240;2022-09-03T00:27:10;13.90;;;6.70;;
22851;SDS011;11592;45.460;9.240;2022-09-03T00:29:43;11.82;;;7.07;;
22851;SDS011;11592;45.460;9.240;2022-09-03T00:32:17;10.00;;;6.22;;
22851;SDS011;11592;45.460;9.240;2022-09-03T00:34:50;10.63;;;7.13;;
22851;SDS011;11592;45.460;9.240;2022-09-03T00:37:22;8.82;;;6.95;;
22851;SDS011;11592;45.460;9.240;2022-09-03T00:39:52;13.05;;;7.00;;
22851;SDS011;11592;45.460;9.240;2022-09-03T00:45:02;8.93;;;7.30;;
22851;SDS011;11592;45.460;9.240;2022-09-03T00:50:44;9.18;;;7.38;;
22851;SDS011;11592;45.460;9.240;2022-09-03T00:55:59;8.32;;;7.18;;
22851;SDS011;11592;45.460;9.240;2022-09-03T01:01:19;13.93;;;7.38;;
22851;SDS011;11592;45.460;9.240;2022-09-03T01:03:53;10.02;;;6.50;;
22851;SDS011;11592;45.460;9.240;2022-09-03T01:11:54;12.30;;;8.30;;
22851;SDS011;11592;45.460;9.240;2022-09-03T01:14:41;12.07;;;8.98;;
22851;SDS011;11592;45.460;9.240;2022-09-03T01:17:16;11.43;;;8.60;;
22851;SDS011;11592;45.460;9.240;2022-09-03T01:20:02;11.15;;;8.50;;
22851;SDS011;11592;45.460;9.240;2022-09-03T01:22:54;11.35;;;8.90;;
22851;SDS011;11592;45.460;9.240;2022-09-03T01:25:29;14.70;;;9.38;;
22851;SDS011;11592;45.460;9.240;2022-09-03T01:33:52;16.95;;;9.32;;
22851;SDS011;11592;45.460;9.240;2022-09-03T01:39:14;13.82;;;8.95;;
22851;SDS011;11592;45.460;9.240;2022-09-03T01:53:06;16.55;;;9.88;;
22851;SDS011;11592;45.460;9.240;2022-09-03T02:01:09;16.08;;;10.52;;
22851;SDS011;11592;45.460;9.240;2022-09-03T02:03:46;12.07;;;9.90;;
22851;SDS011;11592;45.460;9.240;2022-09-03T02:06:13;14.68;;;9.93;;
22851;SDS011;11592;45.460;9.240;2022-09-03T02:08:40;14.20;;;10.60;;
22851;SDS011;11592;45.460;9.240;2022-09-03T02:11:08;14.45;;;9.90;;
22851;SDS011;11592;45.460;9.240;2022-09-03T02:13:40;15.55;;;8.82;;
22851;SDS011;11592;45.460;9.240;2022-09-03T02:16:10;11.63;;;9.13;;
22851;SDS011;11592;45.460;9.240;2022-09-03T02:18:40;13.15;;;9.52;;
22851;SDS011;11592;45.460;9.240;2022-09-03T02:21:12;8.88;;;7.63;;
22851;SDS011;11592;45.460;9.240;2022-09-03T02:23:43;13.05;;;8.85;;
22851;SDS011;11592;45.460;9.240;2022-09-03T02:26:10;13.75;;;7.88;;
22851;SDS011;11592;45.460;9.240;2022-09-03T02:28:38;9.27;;;8.15;;
22851;SDS011;11592;45.460;9.240;2022-09-03T02:31:05;9.45;;;8.45;;
22851;SDS011;11592;45.460;9.240;2022-09-03T02:33:34;10.13;;;7.70;;
22851;SDS011;11592;45.460;9.240;2022-09-03T02:36:04;10.60;;;7.00;;
22851;SDS011;11592;45.460;9.240;2022-09-03T02:38:33;8.32;;;6.93;;
22851;SDS011;11592;45.460;9.240;2022-09-03T02:41:01;12.65;;;7.75;;
22851;SDS011;11592;45.460;9.240;2022-09-03T02:43:33;11.00;;;6.40;;
22851;SDS011;11592;45.460;9.240;2022-09-03T02:46:07;11.70;;;7.30;;
22851;SDS011;11592;45.460;9.240;2022-09-03T02:48:39;11.65;;;6.75;;
22851;SDS011;11592;45.460;9.240;2022-09-03T02:51:06;7.72;;;6.65;;
22851;SDS011;11592;45.460;9.240;2022-09-03T02:53:40;11.35;;;6.63;;
22851;SDS011;11592;45.460;9.240;2022-09-03T02:56:07;8.02;;;6.47;;
22851;SDS011;11592;45.460;9.240;2022-09-03T02:58:34;8.10;;;6.18;;
22851;SDS011;11592;45.460;9.240;2022-09-03T03:01:01;7.68;;;6.20;;
22851;SDS011;11592;45.460;9.240;2022-09-03T03:03:29;7.45;;;5.47;;
22851;SDS011;11592;45.460;9.240;2022-09-03T03:05:57;8.00;;;5.07;;
22851;SDS011;11592;45.460;9.240;2022-09-03T03:08:26;6.35;;;5.65;;
22851;SDS011;11592;45.460;9.240;2022-09-03T03:10:54;8.90;;;5.50;;
22851;SDS011;11592;45.460;9.240;2022-09-03T03:13:27;7.50;;;5.80;;
22851;SDS011;11592;45.460;9.240;2022-09-03T03:15:56;7.05;;;5.57;;
22851;SDS011;11592;45.460;9.240;2022-09-03T03:18:23;9.57;;;7.07;;
22851;SDS011;11592;45.460;9.240;2022-09-03T03:20:50;10.55;;;6.38;;
22851;SDS011;11592;45.460;9.240;2022-09-03T03:23:17;9.65;;;7.03;;
22851;SDS011;11592;45.460;9.240;2022-09-03T03:25:44;8.32;;;6.80;;
22851;SDS011;11592;45.460;9.240;2022-09-03T03:28:11;11.23;;;6.68;;
22851;SDS011;11592;45.460;9.240;2022-09-03T03:30:39;7.70;;;5.47;;
22851;SDS011;11592;45.460;9.240;2022-09-03T03:33:08;9.75;;;5.47;;
22851;SDS011;11592;45.460;9.240;2022-09-03T03:35:35;12.00;;;6.40;;
22851;SDS011;11592;45.460;9.240;2022-09-03T03:38:02;6.18;;;5.40;;
22851;SDS011;11592;45.460;9.240;2022-09-03T03:40:30;9.05;;;5.68;;
22851;SDS011;11592;45.460;9.240;2022-09-03T03:42:57;7.63;;;5.50;;
22851;SDS011;11592;45.460;9.240;2022-09-03T03:45:24;8.85;;;5.50;;
22851;SDS011;11592;45.460;9.240;2022-09-03T03:47:51;9.93;;;5.50;;
22851;SDS011;11592;45.460;9.240;2022-09-03T03:50:23;8.57;;;5.45;;
22851;SDS011;11592;45.460;9.240;2022-09-03T03:52:50;9.93;;;5.13;;
22851;SDS011;11592;45.460;9.240;2022-09-03T03:55:17;8.15;;;5.20;;
22851;SDS011;11592;45.460;9.240;2022-09-03T03:57:45;6.35;;;5.38;;
22851;SDS011;11592;45.460;9.240;2022-09-03T04:00:12;7.13;;;4.90;;
22851;SDS011;11592;45.460;9.240;2022-09-03T04:02:39;8.85;;;5.22;;
22851;SDS011;11592;45.460;9.240;2022-09-03T04:05:06;8.85;;;5.43;;
22851;SDS011;11592;45.460;9.240;2022-09-03T04:07:34;8.27;;;4.80;;
22851;SDS011;11592;45.460;9.240;2022-09-03T04:10:01;9.80;;;4.70;;
22851;SDS011;11592;45.460;9.240;2022-09-03T04:12:28;11.27;;;5.28;;
22851;SDS011;11592;45.460;9.240;2022-09-03T04:14:54;9.45;;;4.60;;
22851;SDS011;11592;45.460;9.240;2022-09-03T04:17:21;6.22;;;3.88;;
22851;SDS011;11592;45.460;9.240;2022-09-03T04:19:50;6.30;;;5.25;;
22851;SDS011;11592;45.460;9.240;2022-09-03T04:22:17;6.80;;;5.20;;
22851;SDS011;11592;45.460;9.240;2022-09-03T04:24:45;5.65;;;4.72;;
22851;SDS011;11592;45.460;9.240;2022-09-03T04:27:12;7.00;;;4.57;;
22851;SDS011;11592;45.460;9.240;2022-09-03T04:29:39;10.63;;;4.95;;
22851;SDS011;11592;45.460;9.240;2022-09-03T04:32:06;7.32;;;4.32;;
22851;SDS011;11592;45.460;9.240;2022-09-03T04:34:51;6.97;;;4.45;;
22851;SDS011;11592;45.460;9.240;2022-09-03T04:37:18;6.03;;;4.43;;
22851;SDS011;11592;45.460;9.240;2022-09-03T04:39:45;5.30;;;4.80;;
22851;SDS011;11592;45.460;9.240;2022-09-03T04:42:12;6.97;;;4.47;;
22851;SDS011;11592;45.460;9.240;2022-09-03T04:44:39;10.25;;;5.40;;
22851;SDS011;11592;45.460;9.240;2022-09-03T04:47:06;8.38;;;5.30;;
22851;SDS011;11592;45.460;9.240;2022-09-03T04:49:33;8.43;;;4.57;;
22851;SDS011;11592;45.460;9.240;2022-09-03T04:52:00;7.25;;;4.93;;
22851;SDS011;11592;45.460;9.240;2022-09-03T04:54:28;5.47;;;4.20;;
22851;SDS011;11592;45.460;9.240;2022-09-03T04:56:55;9.32;;;4.80;;
22851;SDS011;11592;45.460;9.240;2022-09-03T04:59:21;7.05;;;4.65;;
22851;SDS011;11592;45.460;9.240;2022-09-03T05:01:48;8.07;;;4.93;;
22851;SDS011;11592;45.460;9.240;2022-09-03T05:04:17;7.38;;;4.40;;
22851;SDS011;11592;45.460;9.240;2022-09-03T05:06:44;7.55;;;5.63;;
22851;SDS011;11592;45.460;9.240;2022-09-03T05:09:11;6.95;;;4.47;;
22851;SDS011;11592;45.460;9.240;2022-09-03T05:11:38;5.20;;;4.45;;
22851;SDS011;11592;45.460;9.240;2022-09-03T05:14:05;14.20;;;4.95;;
22851;SDS011;11592;45.460;9.240;2022-09-03T05:16:32;7.20;;;3.97;;
22851;SDS011;11592;45.460;9.240;2022-09-03T05:18:59;4.57;;;4.00;;
22851;SDS011;11592;45.460;9.240;2022-09-03T05:21:26;7.35;;;4.88;;
22851;SDS011;11592;45.460;9.240;2022-09-03T05:23:54;5.82;;;4.05;;
22851;SDS011;11592;45.460;9.240;2022-09-03T05:26:25;5.57;;;3.80;;
22851;SDS011;11592;45.460;9.240;2022-09-03T05:28:54;8.55;;;4.05;;
22851;SDS011;11592;45.460;9.240;2022-09-03T05:31:26;7.57;;;4.18;;
22851;SDS011;11592;45.460;9.240;2022-09-03T05:33:55;6.35;;;3.80;;
22851;SDS011;11592;45.460;9.240;2022-09-03T05:36:24;7.75;;;3.80;;
22851;SDS011;11592;45.460;9.240;2022-09-03T05:38:53;6.93;;;3.78;;
22851;SDS011;11592;45.460;9.240;2022-09-03T05:41:20;7.00;;;4.25;;
22851;SDS011;11592;45.460;9.240;2022-09-03T05:43:48;5.78;;;3.88;;
22851;SDS011;11592;45.460;9.240;2022-09-03T05:46:21;6.55;;;3.92;;
22851;SDS011;11592;45.460;9.240;2022-09-03T05:48:58;4.95;;;3.47;;
22851;SDS011;11592;45.460;9.240;2022-09-03T05:51:27;5.80;;;3.88;;
22851;SDS011;11592;45.460;9.240;2022-09-03T05:53:54;6.95;;;4.00;;
22851;SDS011;11592;45.460;9.240;2022-09-03T05:56:22;5.30;;;4.00;;
22851;SDS011;11592;45.460;9.240;2022-09-03T05:58:52;9.57;;;3.92;;
22851;SDS011;11592;45.460;9.240;2022-09-03T06:01:23;7.97;;;4.07;;
22851;SDS011;11592;45.460;9.240;2022-09-03T06:03:58;6.20;;;3.80;;
22851;SDS011;11592;45.460;9.240;2022-09-03T06:06:30;9.38;;;4.28;;
22851;SDS011;11592;45.460;9.240;2022-09-03T06:08:59;5.60;;;4.03;;
22851;SDS011;11592;45.460;9.240;2022-09-03T06:11:28;6.80;;;4.22;;
22851;SDS011;11592;45.460;9.240;2022-09-03T06:13:57;3.83;;;3.25;;
22851;SDS011;11592;45.460;9.240;2022-09-03T06:16:28;8.95;;;4.20;;
22851;SDS011;11592;45.460;9.240;2022-09-03T06:18:57;4.70;;;3.67;;
22851;SDS011;11592;45.460;9.240;2022-09-03T06:21:27;4.80;;;3.15;;
22851;SDS011;11592;45.460;9.240;2022-09-03T06:23:55;5.40;;;3.30;;
22851;SDS011;11592;45.460;9.240;2022-09-03T06:26:25;7.40;;;3.20;;
22851;SDS011;11592;45.460;9.240;2022-09-03T06:28:54;4.00;;;3.08;;
22851;SDS011;11592;45.460;9.240;2022-09-03T06:31:22;3.65;;;3.10;;
22851;SDS011;11592;45.460;9.240;2022-09-03T06:33:50;4.90;;;3.63;;
22851;SDS011;11592;45.460;9.240;2022-09-03T06:36:19;4.38;;;3.25;;
22851;SDS011;11592;45.460;9.240;2022-09-03T06:38:46;4.35;;;3.17;;
22851;SDS011;11592;45.460;9.240;2022-09-03T06:41:14;6.85;;;2.90;;
22851;SDS011;11592;45.460;9.240;2022-09-03T06:43:54;4.10;;;3.30;;
22851;SDS011;11592;45.460;9.240;2022-09-03T06:46:30;4.03;;;2.95;;
22851;SDS011;11592;45.460;9.240;2022-09-03T06:48:59;3.88;;;2.70;;
22851;SDS011;11592;45.460;9.240;2022-09-03T06:51:27;4.22;;;3.05;;
22851;SDS011;11592;45.460;9.240;2022-09-03T06:53:59;3.22;;;2.90;;
22851;SDS011;11592;45.460;9.240;2022-09-03T06:56:27;5.43;;;3.03;;
22851;SDS011;11592;45.460;9.240;2022-09-03T06:58:58;5.22;;;2.97;;
22851;SDS011;11592;45.460;9.240;2022-09-03T07:01:29;7.43;;;3.50;;
22851;SDS011;11592;45.460;9.240;2022-09-03T07:03:58;4.63;;;2.75;;
22851;SDS011;11592;45.460;9.240;2022-09-03T07:06:27;6.53;;;2.85;;
22851;SDS011;11592;45.460;9.240;2022-09-03T07:08:55;5.25;;;3.40;;
22851;SDS011;11592;45.460;9.240;2022-09-03T07:11:26;4.43;;;2.35;;
22851;SDS011;11592;45.460;9.240;2022-09-03T07:13:56;5.28;;;3.20;;
22851;SDS011;11592;45.460;9.240;2022-09-03T07:16:25;8.93;;;3.30;;
22851;SDS011;11592;45.460;9.240;2022-09-03T07:18:58;5.78;;;3.30;;
22851;SDS011;11592;45.460;9.240;2022-09-03T07:21:26;5.25;;;3.40;;
22851;SDS011;11592;45.460;9.240;2022-09-03T07:23:55;6.63;;;3.55;;
22851;SDS011;11592;45.460;9.240;2022-09-03T07:26:26;5.55;;;3.65;;
22851;SDS011;11592;45.460;9.240;2022-09-03T07:28:55;7.07;;;4.03;;
22851;SDS011;11592;45.460;9.240;2022-09-03T07:31:23;5.55;;;3.97;;
22851;SDS011;11592;45.460;9.240;2022-09-03T07:33:55;5.20;;;3.42;;
22851;SDS011;11592;45.460;9.240;2022-09-03T07:36:25;6.15;;;4.15;;
22851;SDS011;11592;45.460;9.240;2022-09-03T07:38:56;6.20;;;4.55;;
22851;SDS011;11592;45.460;9.240;2022-09-03T07:41:24;4.85;;;3.97;;
22851;SDS011;11592;45.460;9.240;2022-09-03T07:43:54;6.97;;;4.78;;
22851;SDS011;11592;45.460;9.240;2022-09-03T07:46:23;11.73;;;4.80;;
22851;SDS011;11592;45.460;9.240;2022-09-03T07:48:53;9.02;;;4.75;;
22851;SDS011;11592;45.460;9.240;2022-09-03T07:51:25;7.40;;;4.45;;
22851;SDS011;11592;45.460;9.240;2022-09-03T07:53:56;7.28;;;4.70;;
22851;SDS011;11592;45.460;9.240;2022-09-03T07:56:24;6.32;;;4.13;;
22851;SDS011;11592;45.460;9.240;2022-09-03T07:58:52;6.90;;;4.35;;
22851;SDS011;11592;45.460;9.240;2022-09-03T08:01:23;7.32;;;4.13;;
22851;SDS011;11592;45.460;9.240;2022-09-03T08:03:51;8.13;;;4.82;;
22851;SDS011;11592;45.460;9.240;2022-09-03T08:06:20;7.53;;;4.72;;
22851;SDS011;11592;45.460;9.240;2022-09-03T08:08:52;8.05;;;4.18;;
22851;SDS011;11592;45.460;9.240;2022-09-03T08:11:28;9.05;;;5.20;;
22851;SDS011;11592;45.460;9.240;2022-09-03T08:13:57;5.70;;;4.20;;
22851;SDS011;11592;45.460;9.240;2022-09-03T08:16:28;5.55;;;4.63;;
22851;SDS011;11592;45.460;9.240;2022-09-03T08:18:56;6.13;;;4.88;;
22851;SDS011;11592;45.460;9.240;2022-09-03T08:21:23;6.55;;;4.65;;
22851;SDS011;11592;45.460;9.240;2022-09-03T08:23:52;6.93;;;5.05;;
22851;SDS011;11592;45.460;9.240;2022-09-03T08:26:21;6.57;;;4.63;;
22851;SDS011;11592;45.460;9.240;2022-09-03T08:28:51;8.70;;;5.43;;
22851;SDS011;11592;45.460;9.240;2022-09-03T08:31:19;8.63;;;4.93;;
22851;SDS011;11592;45.460;9.240;2022-09-03T08:33:48;9.25;;;4.97;;
22851;SDS011;11592;45.460;9.240;2022-09-03T08:36:18;24.17;;;6.03;;
22851;SDS011;11592;45.460;9.240;2022-09-03T08:38:50;32.15;;;6.68;;
22851;SDS011;11592;45.460;9.240;2022-09-03T08:44:12;12.18;;;4.50;;
22851;SDS011;11592;45.460;9.240;2022-09-03T08:47:01;9.43;;;4.70;;
22851;SDS011;11592;45.460;9.240;2022-09-03T08:52:28;5.78;;;4.50;;
22851;SDS011;11592;45.460;9.240;2022-09-03T08:58:10;9.10;;;4.72;;
22851;SDS011;11592;45.460;9.240;2022-09-03T09:00:48;7.97;;;4.30;;
22851;SDS011;11592;45.460;9.240;2022-09-03T09:03:33;6.75;;;4.07;;
22851;SDS011;11592;45.460;9.240;2022-09-03T09:14:19;6.82;;;3.75;;
22851;SDS011;11592;45.460;9.240;2022-09-03T09:22:10;9.02;;;4.30;;
22851;SDS011;11592;45.460;9.240;2022-09-03T09:24:46;6.35;;;5.15;;
22851;SDS011;11592;45.460;9.240;2022-09-03T09:27:15;7.97;;;4.13;;
22851;SDS011;11592;45.460;9.240;2022-09-03T09:29:42;7.68;;;4.07;;
22851;SDS011;11592;45.460;9.240;2022-09-03T09:32:15;5.72;;;4.10;;
22851;SDS011;11592;45.460;9.240;2022-09-03T09:34:47;6.90;;;4.00;;
22851;SDS011;11592;45.460;9.240;2022-09-03T09:37:17;6.20;;;4.10;;
22851;SDS011;11592;45.460;9.240;2022-09-03T09:39:58;6.57;;;4.50;;
22851;SDS011;11592;45.460;9.240;2022-09-03T09:42:26;6.43;;;4.05;;
22851;SDS011;11592;45.460;9.240;2022-09-03T09:44:56;5.22;;;3.88;;
22851;SDS011;11592;45.460;9.240;2022-09-03T09:47:24;4.22;;;3.47;;
22851;SDS011;11592;45.460;9.240;2022-09-03T09:49:55;5.22;;;3.70;;
22851;SDS011;11592;45.460;9.240;2022-09-03T09:52:24;5.85;;;3.40;;
22851;SDS011;11592;45.460;9.240;2022-09-03T09:55:04;6.18;;;3.30;;
22851;SDS011;11592;45.460;9.240;2022-09-03T09:57:36;4.25;;;2.83;;
22851;SDS011;11592;45.460;9.240;2022-09-03T10:00:06;4.95;;;3.13;;
22851;SDS011;11592;45.460;9.240;2022-09-03T10:02:37;5.15;;;2.63;;
22851;SDS011;11592;45.460;9.240;2022-09-03T10:05:11;6.60;;;3.55;;
22851;SDS011;11592;45.460;9.240;2022-09-03T10:07:40;5.57;;;3.15;;
22851;SDS011;11592;45.460;9.240;2022-09-03T10:12:41;3.72;;;3.10;;
22851;SDS011;11592;45.460;9.240;2022-09-03T10:15:27;4.65;;;2.90;;
22851;SDS011;11592;45.460;9.240;2022-09-03T10:18:15;6.10;;;3.20;;
22851;SDS011;11592;45.460;9.240;2022-09-03T10:23:32;3.67;;;2.97;;
22851;SDS011;11592;45.460;9.240;2022-09-03T10:28:42;3.42;;;2.75;;
22851;SDS011;11592;45.460;9.240;2022-09-03T10:31:26;5.25;;;3.22;;
22851;SDS011;11592;45.460;9.240;2022-09-03T10:36:45;3.85;;;2.90;;
22851;SDS011;11592;45.460;9.240;2022-09-03T10:39:24;6.85;;;3.20;;
22851;SDS011;11592;45.460;9.240;2022-09-03T10:51:07;6.82;;;2.65;;
22851;SDS011;11592;45.460;9.240;2022-09-03T10:53:46;8.40;;;3.08;;
22851;SDS011;11592;45.460;9.240;2022-09-03T10:56:31;4.35;;;3.15;;
22851;SDS011;11592;45.460;9.240;2022-09-03T11:04:59;4.43;;;2.75;;
22851;SDS011;11592;45.460;9.240;2022-09-03T11:07:32;7.13;;;3.08;;
22851;SDS011;11592;45.460;9.240;2022-09-03T11:13:17;6.82;;;3.58;;
22851;SDS011;11592;45.460;9.240;2022-09-03T11:15:51;5.70;;;3.33;;
22851;SDS011;11592;45.460;9.240;2022-09-03T11:21:17;6.80;;;4.07;;
22851;SDS011;11592;45.460;9.240;2022-09-03T11:23:55;5.10;;;3.20;;
22851;SDS011;11592;45.460;9.240;2022-09-03T11:26:30;3.78;;;3.38;;
22851;SDS011;11592;45.460;9.240;2022-09-03T11:31:38;6.38;;;4.07;;
22851;SDS011;11592;45.460;9.240;2022-09-03T11:34:31;4.25;;;3.00;;
22851;SDS011;11592;45.460;9.240;2022-09-03T11:37:27;4.25;;;3.45;;
22851;SDS011;11592;45.460;9.240;2022-09-03T11:40:14;6.47;;;3.25;;
22851;SDS011;11592;45.460;9.240;2022-09-03T11:42:44;5.75;;;2.60;;
22851;SDS011;11592;45.460;9.240;2022-09-03T11:45:33;4.28;;;2.25;;
22851;SDS011;11592;45.460;9.240;2022-09-03T11:48:15;4.38;;;3.42;;
22851;SDS011;11592;45.460;9.240;2022-09-03T11:50:53;3.70;;;2.70;;
22851;SDS011;11592;45.460;9.240;2022-09-03T11:53:24;2.95;;;1.95;;
22851;SDS011;11592;45.460;9.240;2022-09-03T11:55:59;3.30;;;1.80;;
22851;SDS011;11592;45.460;9.240;2022-09-03T11:58:33;2.70;;;2.30;;
22851;SDS011;11592;45.460;9.240;2022-09-03T12:01:12;4.85;;;2.55;;
22851;SDS011;11592;45.460;9.240;2022-09-03T12:03:42;3.42;;;2.80;;
22851;SDS011;11592;45.460;9.240;2022-09-03T12:14:26;2.15;;;1.95;;
22851;SDS011;11592;45.460;9.240;2022-09-03T12:17:21;3.28;;;2.15;;
22851;SDS011;11592;45.460;9.240;2022-09-03T12:20:10;4.57;;;2.00;;
22851;SDS011;11592;45.460;9.240;2022-09-03T12:22:38;3.72;;;1.95;;
22851;SDS011;11592;45.460;9.240;2022-09-03T12:25:07;5.97;;;2.00;;
22851;SDS011;11592;45.460;9.240;2022-09-03T12:27:37;4.63;;;1.95;;
22851;SDS011;11592;45.460;9.240;2022-09-03T12:30:13;4.40;;;1.95;;
22851;SDS011;11592;45.460;9.240;2022-09-03T12:32:42;2.10;;;1.55;;
22851;SDS011;11592;45.460;9.240;2022-09-03T12:35:13;2.38;;;1.60;;
22851;SDS011;11592;45.460;9.240;2022-09-03T12:38:00;2.70;;;1.60;;
22851;SDS011;11592;45.460;9.240;2022-09-03T12:40:34;2.70;;;2.20;;
22851;SDS011;11592;45.460;9.240;2022-09-03T12:43:25;6.22;;;2.05;;
22851;SDS011;11592;45.460;9.240;2022-09-03T12:46:13;8.57;;;2.80;;
22851;SDS011;11592;45.460;9.240;2022-09-03T12:48:54;4.78;;;2.63;;
22851;SDS011;11592;45.460;9.240;2022-09-03T12:51:44;6.90;;;3.97;;
22851;SDS011;11592;45.460;9.240;2022-09-03T12:54:15;3.55;;;2.45;;
22851;SDS011;11592;45.460;9.240;2022-09-03T12:56:43;5.88;;;3.47;;
22851;SDS011;11592;45.460;9.240;2022-09-03T12:59:15;5.72;;;2.33;;
22851;SDS011;11592;45.460;9.240;2022-09-03T13:01:46;3.97;;;2.30;;
22851;SDS011;11592;45.460;9.240;2022-09-03T13:04:22;5.13;;;2.50;;
22851;SDS011;11592;45.460;9.240;2022-09-03T13:09:23;3.60;;;2.50;;
22851;SDS011;11592;45.460;9.240;2022-09-03T13:11:52;3.80;;;3.08;;
22851;SDS011;11592;45.460;9.240;2022-09-03T13:14:20;6.00;;;2.42;;
22851;SDS011;11592;45.460;9.240;2022-09-03T13:16:51;2.88;;;2.28;;
22851;SDS011;11592;45.460;9.240;2022-09-03T13:19:45;6.88;;;2.90;;
22851;SDS011;11592;45.460;9.240;2022-09-03T13:28:12;4.30;;;2.20;;
22851;SDS011;11592;45.460;9.240;2022-09-03T13:31:06;3.22;;;2.22;;
22851;SDS011;11592;45.460;9.240;2022-09-03T13:33:42;6.60;;;1.90;;
22851;SDS011;11592;45.460;9.240;2022-09-03T13:36:35;4.22;;;2.35;;
22851;SDS011;11592;45.460;9.240;2022-09-03T13:39:26;6.07;;;2.70;;
22851;SDS011;11592;45.460;9.240;2022-09-03T13:42:17;2.85;;;2.30;;
22851;SDS011;11592;45.460;9.240;2022-09-03T13:54:20;4.15;;;2.30;;
22851;SDS011;11592;45.460;9.240;2022-09-03T14:00:12;4.35;;;2.50;;
22851;SDS011;11592;45.460;9.240;2022-09-03T14:05:30;4.03;;;2.50;;
22851;SDS011;11592;45.460;9.240;2022-09-03T14:08:31;2.88;;;1.92;;
22851;SDS011;11592;45.460;9.240;2022-09-03T14:11:27;4.13;;;2.42;;
22851;SDS011;11592;45.460;9.240;2022-09-03T14:16:52;6.50;;;2.53;;
22851;SDS011;11592;45.460;9.240;2022-09-03T14:19:45;6.85;;;3.60;;
22851;SDS011;11592;45.460;9.240;2022-09-03T14:24:53;5.07;;;2.22;;
22851;SDS011;11592;45.460;9.240;2022-09-03T14:27:26;5.13;;;2.80;;
22851;SDS011;11592;45.460;9.240;2022-09-03T14:30:05;4.35;;;2.22;;
22851;SDS011;11592;45.460;9.240;2022-09-03T14:40:49;4.95;;;2.33;;
22851;SDS011;11592;45.460;9.240;2022-09-03T14:46:17;4.63;;;2.83;;
22851;SDS011;11592;45.460;9.240;2022-09-03T14:54:40;4.10;;;2.70;;
22851;SDS011;11592;45.460;9.240;2022-09-03T15:00:20;3.30;;;2.40;;
22851;SDS011;11592;45.460;9.240;2022-09-03T15:03:07;8.15;;;2.20;;
22851;SDS011;11592;45.460;9.240;2022-09-03T15:09:10;5.03;;;2.50;;
22851;SDS011;11592;45.460;9.240;2022-09-03T15:11:48;6.55;;;2.65;;
22851;SDS011;11592;45.460;9.240;2022-09-03T15:14:38;3.28;;;2.38;;
22851;SDS011;11592;45.460;9.240;2022-09-03T15:19:50;3.35;;;2.35;;
22851;SDS011;11592;45.460;9.240;2022-09-03T15:25:06;5.68;;;3.00;;
22851;SDS011;11592;45.460;9.240;2022-09-03T15:28:00;7.78;;;2.22;;
22851;SDS011;11592;45.460;9.240;2022-09-03T15:30:51;4.13;;;2.70;;
22851;SDS011;11592;45.460;9.240;2022-09-03T15:36:23;6.68;;;1.98;;
22851;SDS011;11592;45.460;9.240;2022-09-03T15:38:57;3.63;;;1.85;;
22851;SDS011;11592;45.460;9.240;2022-09-03T15:41:32;2.08;;;1.73;;
22851;SDS011;11592;45.460;9.240;2022-09-03T15:44:14;2.65;;;2.13;;
22851;SDS011;11592;45.460;9.240;2022-09-03T15:55:40;4.13;;;1.83;;
22851;SDS011;11592;45.460;9.240;2022-09-03T15:58:10;3.70;;;2.65;;
22851;SDS011;11592;45.460;9.240;2022-09-03T16:00:49;3.10;;;2.35;;
22851;SDS011;11592;45.460;9.240;2022-09-03T16:03:22;4.63;;;2.67;;
22851;SDS011;11592;45.460;9.240;2022-09-03T16:09:07;9.10;;;2.33;;
22851;SDS011;11592;45.460;9.240;2022-09-03T16:15:01;5.18;;;2.50;;
22851;SDS011;11592;45.460;9.240;2022-09-03T16:17:31;6.78;;;3.10;;
22851;SDS011;11592;45.460;9.240;2022-09-03T16:22:48;17.05;;;7.95;;
22851;SDS011;11592;45.460;9.240;2022-09-03T16:25:27;5.05;;;3.38;;
22851;SDS011;11592;45.460;9.240;2022-09-03T16:27:59;6.72;;;3.40;;
22851;SDS011;11592;45.460;9.240;2022-09-03T16:36:03;5.18;;;2.95;;
22851;SDS011;11592;45.460;9.240;2022-09-03T16:44:22;5.00;;;3.22;;
22851;SDS011;11592;45.460;9.240;2022-09-03T16:50:14;6.47;;;3.25;;
22851;SDS011;11592;45.460;9.240;2022-09-03T16:53:09;4.93;;;3.22;;
22851;SDS011;11592;45.460;9.240;2022-09-03T17:04:11;6.97;;;3.53;;
22851;SDS011;11592;45.460;9.240;2022-09-03T17:07:10;6.25;;;3.08;;
22851;SDS011;11592;45.460;9.240;2022-09-03T17:18:07;3.05;;;2.63;;
22851;SDS011;11592;45.460;9.240;2022-09-03T17:23:41;3.47;;;2.70;;
22851;SDS011;11592;45.460;9.240;2022-09-03T17:29:39;5.72;;;3.10;;
22851;SDS011;11592;45.460;9.240;2022-09-03T17:32:46;6.47;;;3.50;;
22851;SDS011;11592;45.460;9.240;2022-09-03T17:35:35;5.10;;;3.30;;
22851;SDS011;11592;45.460;9.240;2022-09-03T17:43:39;8.15;;;3.50;;
22851;SDS011;11592;45.460;9.240;2022-09-03T17:46:28;5.88;;;3.45;;
22851;SDS011;11592;45.460;9.240;2022-09-03T17:49:22;5.30;;;3.75;;
22851;SDS011;11592;45.460;9.240;2022-09-03T17:55:28;9.57;;;3.38;;
22851;SDS011;11592;45.460;9.240;2022-09-03T18:01:01;7.70;;;3.42;;
22851;SDS011;11592;45.460;9.240;2022-09-03T18:06:43;4.35;;;3.35;;
22851;SDS011;11592;45.460;9.240;2022-09-03T18:09:34;6.00;;;3.40;;
22851;SDS011;11592;45.460;9.240;2022-09-03T18:12:16;6.40;;;4.03;;
22851;SDS011;11592;45.460;9.240;2022-09-03T18:15:11;8.05;;;4.22;;
22851;SDS011;11592;45.460;9.240;2022-09-03T18:17:52;6.47;;;3.63;;
22851;SDS011;11592;45.460;9.240;2022-09-03T18:20:24;6.13;;;3.22;;
22851;SDS011;11592;45.460;9.240;2022-09-03T18:23:34;7.07;;;3.83;;
22851;SDS011;11592;45.460;9.240;2022-09-03T18:26:46;6.88;;;3.70;;
22851;SDS011;11592;45.460;9.240;2022-09-03T18:32:42;10.88;;;4.25;;
22851;SDS011;11592;45.460;9.240;2022-09-03T18:35:28;7.30;;;4.80;;
22851;SDS011;11592;45.460;9.240;2022-09-03T18:38:17;5.20;;;4.68;;
22851;SDS011;11592;45.460;9.240;2022-09-03T18:41:27;7.35;;;4.88;;
22851;SDS011;11592;45.460;9.240;2022-09-03T18:47:50;7.03;;;4.28;;
22851;SDS011;11592;45.460;9.240;2022-09-03T19:00:29;8.13;;;5.07;;
22851;SDS011;11592;45.460;9.240;2022-09-03T19:03:24;5.72;;;4.18;;
22851;SDS011;11592;45.460;9.240;2022-09-03T19:06:25;6.60;;;4.43;;
22851;SDS011;11592;45.460;9.240;2022-09-03T19:15:58;8.13;;;4.70;;
22851;SDS011;11592;45.460;9.240;2022-09-03T19:19:13;11.75;;;5.18;;
22851;SDS011;11592;45.460;9.240;2022-09-03T19:22:10;10.75;;;6.22;;
22851;SDS011;11592;45.460;9.240;2022-09-03T19:24:59;8.30;;;5.30;;
22851;SDS011;11592;45.460;9.240;2022-09-03T19:30:52;8.43;;;5.85;;
22851;SDS011;11592;45.460;9.240;2022-09-03T19:39:58;7.57;;;6.07;;
22851;SDS011;11592;45.460;9.240;2022-09-03T19:46:11;8.97;;;5.23;;
22851;SDS011;11592;45.460;9.240;2022-09-03T19:55:25;2.47;;;1.95;;
22851;SDS011;11592;45.460;9.240;2022-09-03T19:58:16;6.07;;;2.70;;
22851;SDS011;11592;45.460;9.240;2022-09-03T20:01:09;4.85;;;2.70;;
22851;SDS011;11592;45.460;9.240;2022-09-03T20:03:55;4.43;;;2.25;;
22851;SDS011;11592;45.460;9.240;2022-09-03T20:06:42;5.25;;;2.22;;
22851;SDS011;11592;45.460;9.240;2022-09-03T20:09:31;7.40;;;2.42;;
22851;SDS011;11592;45.460;9.240;2022-09-03T20:12:21;4.40;;;2.35;;
22851;SDS011;11592;45.460;9.240;2022-09-03T20:14:51;2.80;;;2.03;;
22851;SDS011;11592;45.460;9.240;2022-09-03T20:22:31;4.80;;;2.42;;
22851;SDS011;11592;45.460;9.240;2022-09-03T20:30:55;7.18;;;2.40;;